Tessa Pg — MJBU6 — position and weather

sailwx.info

Track history (hours):
 
Tides and Currents Weather Stations Pressure Air Temp Water Temp Dewpoint Dewpoint Depression Visibility Wind Speed Wind Dir Waves Ship Positions

Tessa Pg

Last reported at 2017-Sep-18 16:32 UTC. Time now 2017-Sep-20 18:20 UTC.
Position N 14°02' W 061°17'.

Length 122 m; draft 5.6 m.

Type: Tanker. MMSI: 235009020.

Date/timePositionNaut miles runAvg speedWind from/ knotsBaromVisibWave heightAir tempDewpointWater temp
2017-Sep-18 16:32N 14°02' W 061°17'210.6
2017-Sep-18 16:18N 14°04' W 061°16'310.2
2017-Sep-18 16:00N 14°07' W 061°15'3 6.7
2017-Sep-18 15:30N 14°10' W 061°16'11 5.8
2017-Sep-18 13:37N 14°21' W 061°14'  
2017-Sep-15 19:33N 14°34' W 061°06'1 9.3
2017-Sep-15 19:27N 14°34' W 061°07'510.7
2017-Sep-15 18:59N 14°37' W 061°12'11711.7
2017-Sep-15 09:00N 16°14' W 062°18'612.2
2017-Sep-15 08:30N 16°19' W 062°22'612.2
2017-Sep-15 08:00N 16°25' W 062°25'611.9
2017-Sep-15 07:30N 16°30' W 062°28'611.8
2017-Sep-15 07:00N 16°35' W 062°32'611.9
2017-Sep-15 06:30N 16°40' W 062°35'3 0.1
2017-Sep-14 04:27N 16°42' W 062°37'612.6
2017-Sep-14 04:00N 16°37' W 062°33'912.8
2017-Sep-14 03:18N 16°30' W 062°29'412.8
2017-Sep-14 03:00N 16°27' W 062°27'612.7
2017-Sep-14 02:30N 16°21' W 062°23'612.5
2017-Sep-14 02:00N 16°16' W 062°19'6712.6
2017-Sep-13 20:42N 15°20' W 061°42'5011.2
2017-Sep-13 16:16N 14°38' W 061°14'311.8
2017-Sep-13 16:00N 14°37' W 061°11'611.5
2017-Sep-13 15:30N 14°34' W 061°06'0 0.4
2017-Sep-13 14:55N 14°34' W 061°06'0 0.0
2017-Sep-13 13:28N 14°34' W 061°06'0 0.1
2017-Sep-13 12:55N 14°34' W 061°06'0 0.0
2017-Sep-13 11:46N 14°34' W 061°05'0 0.0
2017-Sep-13 11:28N 14°34' W 061°05'0 0.0
2017-Sep-13 10:58N 14°34' W 061°05'0 0.0
2017-Sep-13 07:40N 14°34' W 061°05'0 0.2
2017-Sep-13 07:28N 14°34' W 061°06'0 0.0
2017-Sep-13 06:55N 14°34' W 061°06'0 0.0
2017-Sep-13 06:28N 14°34' W 061°06'0 0.1
2017-Sep-13 05:58N 14°34' W 061°05'0 0.1
2017-Sep-13 05:28N 14°34' W 061°05'0 0.0
2017-Sep-13 04:58N 14°34' W 061°05'0 0.1
2017-Sep-13 04:07N 14°34' W 061°05'0 0.0
2017-Sep-13 03:40N 14°34' W 061°05'0 0.0
2017-Sep-13 02:13N 14°34' W 061°05'0 0.0
2017-Sep-13 01:52N 14°34' W 061°05'0 0.0
2017-Sep-13 00:04N 14°34' W 061°05'0 0.1
2017-Sep-12 23:52N 14°34' W 061°05'0 0.0
2017-Sep-12 23:16N 14°34' W 061°05'0 0.0
2017-Sep-12 22:16N 14°34' W 061°05'0 0.1
2017-Sep-12 21:55N 14°34' W 061°05'0 0.0
2017-Sep-12 21:28N 14°34' W 061°05'0 0.0
2017-Sep-12 19:55N 14°34' W 061°05'0 0.7
2017-Sep-12 19:30N 14°34' W 061°06'2 4.8
2017-Sep-12 19:01N 14°36' W 061°04'0 0.0
2017-Sep-12 14:57N 14°36' W 061°04'0 0.0
2017-Sep-12 14:30N 14°36' W 061°04'0 0.0
2017-Sep-12 14:00N 14°36' W 061°04'0 0.0
2017-Sep-12 13:30N 14°36' W 061°04'0 0.0
2017-Sep-12 13:00N 14°36' W 061°04'0 0.0
2017-Sep-12 12:30N 14°36' W 061°04'0 0.0
2017-Sep-12 12:00N 14°36' W 061°04'0 0.3
2017-Sep-12 11:30N 14°36' W 061°04'2 0.5
2017-Sep-12 06:43N 14°34' W 061°06'0 0.0
2017-Sep-12 06:16N 14°34' W 061°06'0 0.0
2017-Sep-12 05:55N 14°34' W 061°06'0 0.0
2017-Sep-12 05:28N 14°34' W 061°06'0 0.0
2017-Sep-12 04:40N 14°34' W 061°06'0 0.0
2017-Sep-12 04:25N 14°34' W 061°06'0 0.0
2017-Sep-12 03:55N 14°34' W 061°06'0 0.0
2017-Sep-12 03:22N 14°34' W 061°06'0 0.0
2017-Sep-12 02:55N 14°34' W 061°06'0 0.0
2017-Sep-12 02:28N 14°34' W 061°06'0 0.0
2017-Sep-12 01:58N 14°34' W 061°06'0 0.0
2017-Sep-12 00:52N 14°34' W 061°06'0 0.0
2017-Sep-11 23:37N 14°34' W 061°06'0 0.0
2017-Sep-11 10:52N 14°34' W 061°06'0 0.0
2017-Sep-11 10:22N 14°34' W 061°06'0 0.0
2017-Sep-11 04:10N 14°34' W 061°06'0 0.1
2017-Sep-11 03:55N 14°34' W 061°06'0 0.0
2017-Sep-10 19:40N 14°34' W 061°06'0 0.0
2017-Sep-10 19:19N 14°34' W 061°06'0 0.0
2017-Sep-10 18:58N 14°34' W 061°06'0 0.0
2017-Sep-10 18:13N 14°34' W 061°06'0 0.0
2017-Sep-10 17:25N 14°34' W 061°06'0 0.1
2017-Sep-10 16:55N 14°34' W 061°06'1 0.0
2017-Sep-09 12:24N 14°35' W 061°06'4 9.8
2017-Sep-09 12:00N 14°36' W 061°10'5011.4
2017-Sep-09 07:37N 15°21' W 061°33'812.6
2017-Sep-09 06:56N 15°28' W 061°37'512.2
2017-Sep-09 06:30N 15°33' W 061°39'3610.5
2017-Sep-09 03:02N 16°08' W 061°30'112.3
2017-Sep-09 02:59N 16°09' W 061°30'510.1
2017-Sep-09 02:30N 16°13' W 061°32'1 0.1
2017-Sep-08 18:25N 16°14' W 061°33'1 2.1
2017-Sep-08 18:01N 16°13' W 061°32'4 8.1
2017-Sep-08 17:30N 16°10' W 061°31'810.2
2017-Sep-08 16:40N 16°01' W 061°29'  
Track history (hours):
 
Tides and Currents Weather Stations Pressure Air Temp Water Temp Dewpoint Dewpoint Depression Visibility Wind Speed Wind Dir Waves Ship Positions

Tessa Pg

Last reported at 2017-Sep-18 16:32 UTC. Time now 2017-Sep-20 18:20 UTC.
Position N 14°02' W 061°17'.

Length 122 m; draft 5.6 m.

Type: Tanker. MMSI: 235009020.

Date/timePositionNaut miles runAvg speedWind from/ knotsBaromVisibWave heightAir tempDewpointWater temp
2017-Sep-18 16:32N 14°02' W 061°17'210.6
2017-Sep-18 16:18N 14°04' W 061°16'310.2
2017-Sep-18 16:00N 14°07' W 061°15'3 6.7
2017-Sep-18 15:30N 14°10' W 061°16'11 5.8
2017-Sep-18 13:37N 14°21' W 061°14'  
2017-Sep-15 19:33N 14°34' W 061°06'1 9.3
2017-Sep-15 19:27N 14°34' W 061°07'510.7
2017-Sep-15 18:59N 14°37' W 061°12'11711.7
2017-Sep-15 09:00N 16°14' W 062°18'612.2
2017-Sep-15 08:30N 16°19' W 062°22'612.2
2017-Sep-15 08:00N 16°25' W 062°25'611.9
2017-Sep-15 07:30N 16°30' W 062°28'611.8
2017-Sep-15 07:00N 16°35' W 062°32'611.9
2017-Sep-15 06:30N 16°40' W 062°35'3 0.1
2017-Sep-14 04:27N 16°42' W 062°37'612.6
2017-Sep-14 04:00N 16°37' W 062°33'912.8
2017-Sep-14 03:18N 16°30' W 062°29'412.8
2017-Sep-14 03:00N 16°27' W 062°27'612.7
2017-Sep-14 02:30N 16°21' W 062°23'612.5
2017-Sep-14 02:00N 16°16' W 062°19'6712.6
2017-Sep-13 20:42N 15°20' W 061°42'5011.2
2017-Sep-13 16:16N 14°38' W 061°14'311.8
2017-Sep-13 16:00N 14°37' W 061°11'611.5
2017-Sep-13 15:30N 14°34' W 061°06'0 0.4
2017-Sep-13 14:55N 14°34' W 061°06'0 0.0
2017-Sep-13 13:28N 14°34' W 061°06'0 0.1
2017-Sep-13 12:55N 14°34' W 061°06'0 0.0
2017-Sep-13 11:46N 14°34' W 061°05'0 0.0
2017-Sep-13 11:28N 14°34' W 061°05'0 0.0
2017-Sep-13 10:58N 14°34' W 061°05'0 0.0
2017-Sep-13 07:40N 14°34' W 061°05'0 0.2
2017-Sep-13 07:28N 14°34' W 061°06'0 0.0
2017-Sep-13 06:55N 14°34' W 061°06'0 0.0
2017-Sep-13 06:28N 14°34' W 061°06'0 0.1
2017-Sep-13 05:58N 14°34' W 061°05'0 0.1
2017-Sep-13 05:28N 14°34' W 061°05'0 0.0
2017-Sep-13 04:58N 14°34' W 061°05'0 0.1
2017-Sep-13 04:07N 14°34' W 061°05'0 0.0
2017-Sep-13 03:40N 14°34' W 061°05'0 0.0
2017-Sep-13 02:13N 14°34' W 061°05'0 0.0
2017-Sep-13 01:52N 14°34' W 061°05'0 0.0
2017-Sep-13 00:04N 14°34' W 061°05'0 0.1
2017-Sep-12 23:52N 14°34' W 061°05'0 0.0
2017-Sep-12 23:16N 14°34' W 061°05'0 0.0
2017-Sep-12 22:16N 14°34' W 061°05'0 0.1
2017-Sep-12 21:55N 14°34' W 061°05'0 0.0
2017-Sep-12 21:28N 14°34' W 061°05'0 0.0
2017-Sep-12 19:55N 14°34' W 061°05'0 0.7
2017-Sep-12 19:30N 14°34' W 061°06'2 4.8
2017-Sep-12 19:01N 14°36' W 061°04'0 0.0
2017-Sep-12 14:57N 14°36' W 061°04'0 0.0
2017-Sep-12 14:30N 14°36' W 061°04'0 0.0
2017-Sep-12 14:00N 14°36' W 061°04'0 0.0
2017-Sep-12 13:30N 14°36' W 061°04'0 0.0
2017-Sep-12 13:00N 14°36' W 061°04'0 0.0
2017-Sep-12 12:30N 14°36' W 061°04'0 0.0
2017-Sep-12 12:00N 14°36' W 061°04'0 0.3
2017-Sep-12 11:30N 14°36' W 061°04'2 0.5
2017-Sep-12 06:43N 14°34' W 061°06'0 0.0
2017-Sep-12 06:16N 14°34' W 061°06'0 0.0
2017-Sep-12 05:55N 14°34' W 061°06'0 0.0
2017-Sep-12 05:28N 14°34' W 061°06'0 0.0
2017-Sep-12 04:40N 14°34' W 061°06'0 0.0
2017-Sep-12 04:25N 14°34' W 061°06'0 0.0
2017-Sep-12 03:55N 14°34' W 061°06'0 0.0
2017-Sep-12 03:22N 14°34' W 061°06'0 0.0
2017-Sep-12 02:55N 14°34' W 061°06'0 0.0
2017-Sep-12 02:28N 14°34' W 061°06'0 0.0
2017-Sep-12 01:58N 14°34' W 061°06'0 0.0
2017-Sep-12 00:52N 14°34' W 061°06'0 0.0
2017-Sep-11 23:37N 14°34' W 061°06'0 0.0
2017-Sep-11 10:52N 14°34' W 061°06'0 0.0
2017-Sep-11 10:22N 14°34' W 061°06'0 0.0
2017-Sep-11 04:10N 14°34' W 061°06'0 0.1
2017-Sep-11 03:55N 14°34' W 061°06'0 0.0
2017-Sep-10 19:40N 14°34' W 061°06'0 0.0
2017-Sep-10 19:19N 14°34' W 061°06'0 0.0
2017-Sep-10 18:58N 14°34' W 061°06'0 0.0
2017-Sep-10 18:13N 14°34' W 061°06'0 0.0
2017-Sep-10 17:25N 14°34' W 061°06'0 0.1
2017-Sep-10 16:55N 14°34' W 061°06'1 0.0
2017-Sep-09 12:24N 14°35' W 061°06'4 9.8
2017-Sep-09 12:00N 14°36' W 061°10'5011.4
2017-Sep-09 07:37N 15°21' W 061°33'812.6
2017-Sep-09 06:56N 15°28' W 061°37'512.2
2017-Sep-09 06:30N 15°33' W 061°39'3610.5
2017-Sep-09 03:02N 16°08' W 061°30'112.3
2017-Sep-09 02:59N 16°09' W 061°30'510.1
2017-Sep-09 02:30N 16°13' W 061°32'1 0.1
2017-Sep-08 18:25N 16°14' W 061°33'1 2.1
2017-Sep-08 18:01N 16°13' W 061°32'4 8.1
2017-Sep-08 17:30N 16°10' W 061°31'810.2
2017-Sep-08 16:40N 16°01' W 061°29'  

Dump ship's entire track history